createdAt,value
2019-05-22T00:00:55.956Z,76.06
2019-05-22T00:01:55.882Z,76.82
2019-05-22T00:02:55.905Z,76.54
2019-05-22T00:03:55.750Z,76.34
2019-05-22T00:04:55.682Z,76.64
2019-05-22T00:05:55.609Z,76.06
2019-05-22T00:06:55.545Z,76.06
2019-05-22T00:07:55.476Z,76.34
2019-05-22T00:08:55.410Z,75.87
2019-05-22T00:09:55.345Z,75.87
2019-05-22T00:10:55.279Z,75.77
2019-05-22T00:11:55.208Z,75.67
2019-05-22T00:12:55.139Z,76.06
2019-05-22T00:13:55.065Z,75.67
2019-05-22T00:14:54.999Z,76.34
2019-05-22T00:15:54.931Z,76.82
2019-05-22T00:16:54.863Z,76.54
2019-05-22T00:17:54.796Z,76.73
2019-05-22T00:18:54.725Z,76.73
2019-05-22T00:19:54.667Z,76.73
2019-05-22T00:20:54.589Z,76.92
2019-05-22T00:21:54.526Z,77.59
2019-05-22T00:22:54.453Z,77.59
2019-05-22T00:23:54.383Z,77.50
2019-05-22T00:24:54.316Z,77.65
2019-05-22T00:25:54.250Z,78.13
2019-05-22T00:26:54.193Z,78.03
2019-05-22T00:27:54.108Z,78.03
2019-05-22T00:28:54.042Z,78.03
2019-05-22T00:29:53.976Z,78.17
2019-05-22T00:30:53.909Z,78.27
2019-05-22T00:31:53.840Z,78.36
2019-05-22T00:32:53.765Z,78.23
2019-05-22T00:33:53.703Z,78.61
2019-05-22T00:34:53.630Z,79.28
2019-05-22T00:35:53.566Z,78.99
2019-05-22T00:36:53.496Z,79.67
2019-05-22T00:37:53.428Z,79.28
2019-05-22T00:38:53.359Z,79.47
2019-05-22T00:39:53.292Z,79.28
2019-05-22T00:40:53.225Z,79.86
2019-05-22T00:41:53.152Z,79.96
2019-05-22T00:43:03.388Z,80.15
2019-05-22T00:43:53.015Z,79.82
2019-05-22T00:44:52.944Z,79.72
2019-05-22T00:45:52.878Z,80.40
2019-05-22T00:46:52.809Z,80.87
2019-05-22T00:47:52.738Z,80.49
2019-05-22T00:48:52.675Z,80.49
2019-05-22T00:49:52.607Z,80.40
2019-05-22T00:50:52.577Z,80.49
2019-05-22T00:51:52.464Z,80.49
2019-05-22T00:52:52.402Z,80.49
2019-05-22T00:53:52.331Z,80.68
2019-05-22T00:54:52.284Z,80.30
2019-05-22T00:55:52.197Z,79.91
2019-05-22T00:56:52.124Z,80.43
2019-05-22T00:57:52.056Z,80.01
2019-05-22T00:58:52.003Z,80.20
2019-05-22T00:59:51.922Z,80.30
2019-05-22T01:00:51.848Z,79.96
2019-05-22T01:01:51.779Z,79.82
2019-05-22T01:02:51.712Z,80.01
2019-05-22T01:03:51.644Z,79.76
2019-05-22T01:04:51.575Z,79.63
2019-05-22T01:05:51.522Z,79.53
2019-05-22T01:06:51.448Z,79.63
2019-05-22T01:07:51.384Z,79.76
2019-05-22T01:08:51.318Z,79.19
2019-05-22T01:09:51.312Z,79.28
2019-05-22T01:10:51.163Z,79.19
2019-05-22T01:11:51.099Z,79.28
2019-05-22T01:12:51.088Z,79.91
2019-05-22T01:13:50.949Z,80.11
2019-05-22T01:14:50.882Z,79.53
2019-05-22T01:15:50.825Z,80.30
2019-05-22T01:16:50.795Z,80.78
2019-05-22T01:17:50.866Z,80.58
2019-05-22T01:18:50.616Z,80.49
2019-05-22T01:19:50.540Z,80.49
2019-05-22T01:20:50.471Z,80.40
2019-05-22T01:21:50.408Z,80.68
2019-05-22T01:22:50.334Z,80.58
2019-05-22T01:23:50.268Z,80.68
2019-05-22T01:24:50.216Z,80.68
2019-05-22T01:25:50.127Z,80.49
2019-05-22T01:26:50.056Z,80.49
2019-05-22T01:27:49.992Z,80.40
2019-05-22T01:28:49.927Z,79.82
2019-05-22T01:29:49.856Z,80.49
2019-05-22T01:30:49.783Z,80.20
2019-05-22T01:31:49.739Z,80.20
2019-05-22T01:32:49.738Z,80.40
2019-05-22T01:33:49.582Z,79.82
2019-05-22T01:34:49.512Z,80.01
2019-05-22T01:35:49.443Z,80.40
2019-05-22T01:36:49.369Z,80.68
2019-05-22T01:37:49.297Z,80.68
2019-05-22T01:38:49.232Z,80.68
2019-05-22T01:39:49.166Z,80.87
2019-05-22T01:40:49.095Z,80.97
2019-05-22T01:41:49.028Z,81.16
2019-05-22T01:42:48.958Z,81.07
2019-05-22T01:43:48.889Z,80.97
2019-05-22T01:45:01.686Z,80.97
2019-05-22T01:45:48.750Z,81.60
2019-05-22T01:46:48.688Z,81.60
2019-05-22T01:47:48.646Z,81.64
2019-05-22T01:48:48.543Z,81.64
2019-05-22T01:49:48.471Z,81.64
2019-05-22T01:50:48.410Z,81.64
2019-05-22T01:51:48.335Z,81.26
2019-05-22T01:52:48.271Z,81.07
2019-05-22T01:53:48.198Z,80.87
2019-05-22T01:54:48.130Z,80.87
2019-05-22T01:55:48.055Z,80.97
2019-05-22T01:56:47.992Z,81.16
2019-05-22T01:57:47.922Z,81.07
2019-05-22T01:58:47.856Z,80.87
2019-05-22T01:59:47.780Z,80.97
2019-05-22T02:00:47.716Z,80.40
2019-05-22T02:01:47.648Z,80.58
2019-05-22T02:02:47.580Z,80.40
2019-05-22T02:03:47.511Z,80.30
2019-05-22T02:04:47.460Z,80.68
2019-05-22T02:05:47.370Z,80.40
2019-05-22T02:06:47.346Z,80.30
2019-05-22T02:07:47.230Z,80.30
2019-05-22T02:08:47.167Z,80.40
2019-05-22T02:09:47.099Z,80.68
2019-05-22T02:10:47.040Z,80.49
2019-05-22T02:11:46.959Z,80.49
2019-05-22T02:12:46.894Z,80.97
2019-05-22T02:13:46.820Z,81.07
2019-05-22T02:14:46.761Z,80.78
2019-05-22T02:15:46.683Z,81.16
2019-05-22T02:16:56.002Z,80.87
2019-05-22T02:17:46.540Z,81.22
2019-05-22T02:18:46.475Z,81.35
2019-05-22T02:19:46.407Z,81.45
2019-05-22T02:20:46.338Z,81.41
2019-05-22T02:21:46.268Z,81.51
2019-05-22T02:22:46.200Z,81.70
2019-05-22T02:23:46.130Z,81.79
2019-05-22T02:24:46.062Z,81.98
2019-05-22T02:25:45.992Z,81.60
2019-05-22T02:26:45.926Z,82.03
2019-05-22T02:27:45.855Z,81.74
2019-05-22T02:28:45.788Z,81.70
2019-05-22T02:29:45.730Z,81.89
2019-05-22T02:30:45.747Z,82.27
2019-05-22T02:31:45.581Z,82.75
2019-05-22T02:32:45.511Z,82.18
2019-05-22T02:33:45.443Z,82.08
2019-05-22T02:34:45.373Z,82.46
2019-05-22T02:35:45.311Z,81.60
2019-05-22T02:36:45.236Z,81.84
2019-05-22T02:37:45.166Z,81.60
2019-05-22T02:38:45.173Z,81.45
2019-05-22T02:39:45.060Z,81.12
2019-05-22T02:40:44.958Z,80.97
2019-05-22T02:41:44.887Z,80.83
2019-05-22T02:42:44.822Z,81.26
2019-05-22T02:43:44.757Z,81.26
2019-05-22T02:44:44.683Z,80.97
2019-05-22T02:45:44.614Z,80.68
2019-05-22T02:46:44.543Z,80.58
2019-05-22T02:47:44.485Z,80.83
2019-05-22T02:48:44.422Z,80.83
2019-05-22T02:49:44.357Z,81.12
2019-05-22T02:50:44.269Z,81.12
2019-05-22T02:51:44.209Z,80.93
2019-05-22T02:52:44.131Z,81.22
2019-05-22T02:53:44.064Z,80.55
2019-05-22T02:54:43.997Z,81.02
2019-05-22T02:55:43.929Z,80.49
2019-05-22T02:56:43.850Z,80.16
2019-05-22T02:57:43.787Z,79.39
2019-05-22T02:58:43.719Z,79.11
2019-05-22T02:59:43.653Z,79.11
2019-05-22T03:00:43.582Z,79.11
2019-05-22T03:01:43.508Z,79.30
2019-05-22T03:02:43.447Z,79.49
2019-05-22T03:03:43.372Z,79.68
2019-05-22T03:04:43.302Z,79.30
2019-05-22T03:05:43.232Z,79.49
2019-05-22T03:06:43.172Z,79.21
2019-05-22T03:07:43.093Z,79.49
2019-05-22T03:08:43.028Z,79.11
2019-05-22T03:09:46.567Z,78.72
2019-05-22T03:10:42.902Z,78.53
2019-05-22T03:11:42.818Z,78.00
2019-05-22T03:12:42.755Z,77.95
2019-05-22T03:13:42.696Z,77.95
2019-05-22T03:14:42.615Z,78.44
2019-05-22T03:15:42.545Z,78.53
2019-05-22T03:16:42.480Z,78.63
2019-05-22T03:17:42.407Z,78.34
2019-05-22T03:18:42.337Z,78.34
2019-05-22T03:19:42.283Z,78.72
2019-05-22T03:20:42.221Z,78.15
2019-05-22T03:21:42.128Z,77.95
2019-05-22T03:22:42.076Z,77.76
2019-05-22T03:23:41.995Z,77.86
2019-05-22T03:24:41.924Z,77.86
2019-05-22T03:25:41.848Z,77.04
2019-05-22T03:26:41.786Z,77.13
2019-05-22T03:27:41.718Z,76.75
2019-05-22T03:28:41.647Z,76.94
2019-05-22T03:29:41.578Z,76.94
2019-05-22T03:30:41.513Z,76.27
2019-05-22T03:31:41.454Z,76.27
2019-05-22T03:32:43.876Z,76.07
2019-05-22T03:33:41.313Z,76.27
2019-05-22T03:34:41.234Z,76.07
2019-05-22T03:35:41.178Z,76.27
2019-05-22T03:36:41.089Z,76.17
2019-05-22T03:37:41.027Z,76.07
2019-05-22T03:38:40.960Z,76.27
2019-05-22T03:39:40.894Z,76.27
2019-05-22T03:40:40.821Z,76.65
2019-05-22T03:41:40.758Z,75.98
2019-05-22T03:42:40.683Z,75.98
2019-05-22T03:43:40.611Z,76.17
2019-05-22T03:44:40.549Z,75.95
2019-05-22T03:45:40.475Z,76.14
2019-05-22T03:46:40.405Z,76.23
2019-05-22T03:47:40.340Z,76.42
2019-05-22T03:48:40.266Z,77.00
2019-05-22T03:49:40.196Z,76.90
2019-05-22T03:50:40.133Z,76.81
2019-05-22T03:51:40.063Z,76.62
2019-05-22T03:52:39.990Z,76.81
2019-05-22T03:53:39.923Z,77.53
2019-05-22T03:54:39.853Z,77.19
2019-05-22T03:55:39.783Z,77.09
2019-05-22T03:56:39.717Z,77.67
2019-05-22T03:57:39.654Z,77.67
2019-05-22T03:58:39.577Z,77.29
2019-05-22T03:59:39.510Z,77.34
2019-05-22T04:00:43.326Z,77.44
2019-05-22T04:01:39.371Z,77.53
2019-05-22T04:02:39.309Z,77.15
2019-05-22T04:03:39.247Z,77.53
2019-05-22T04:04:39.177Z,76.81
2019-05-22T04:05:39.090Z,77.09
2019-05-22T04:06:39.021Z,76.96
2019-05-22T04:07:38.980Z,77.44
2019-05-22T04:08:38.887Z,77.06
2019-05-22T04:09:38.813Z,77.06
2019-05-22T04:10:41.145Z,77.25
2019-05-22T04:11:38.684Z,76.67
2019-05-22T04:12:38.609Z,76.57
2019-05-22T04:13:38.550Z,77.25
2019-05-22T04:14:38.482Z,77.34
2019-05-22T04:15:38.404Z,77.53
2019-05-22T04:16:38.336Z,77.34
2019-05-22T04:17:38.271Z,77.88
2019-05-22T04:18:38.194Z,77.78
2019-05-22T04:19:49.296Z,77.69
2019-05-22T04:20:38.050Z,78.17
2019-05-22T04:21:37.979Z,77.88
2019-05-22T04:22:37.912Z,77.53
2019-05-22T04:23:37.844Z,77.63
2019-05-22T04:24:37.771Z,77.82
2019-05-22T04:25:37.706Z,77.92
2019-05-22T04:26:37.634Z,77.25
2019-05-22T04:27:37.563Z,76.77
2019-05-22T04:28:37.508Z,76.29
2019-05-22T04:29:37.426Z,75.81
2019-05-22T04:30:37.357Z,76.00
2019-05-22T04:31:37.289Z,75.90
2019-05-22T04:32:37.223Z,76.19
2019-05-22T04:33:37.158Z,76.29
2019-05-22T04:34:37.076Z,76.29
2019-05-22T04:35:37.017Z,76.29
2019-05-22T04:36:36.970Z,75.81
2019-05-22T04:37:36.872Z,75.90
2019-05-22T04:38:36.798Z,75.81
2019-05-22T04:39:36.734Z,76.19
2019-05-22T04:40:36.662Z,76.10
2019-05-22T04:41:36.591Z,76.10
2019-05-22T04:42:36.526Z,75.71
2019-05-22T04:43:36.455Z,75.71
2019-05-22T04:44:36.385Z,75.71
2019-05-22T04:45:36.324Z,75.37
2019-05-22T04:46:36.244Z,75.37
2019-05-22T04:47:36.178Z,75.56
2019-05-22T04:48:36.108Z,75.23
2019-05-22T04:49:36.040Z,75.52
2019-05-22T04:50:35.967Z,75.62
2019-05-22T04:51:35.895Z,75.87
2019-05-22T04:52:35.829Z,76.54
2019-05-22T04:53:35.759Z,76.92
2019-05-22T04:54:35.688Z,77.02
2019-05-22T04:55:35.621Z,77.50
2019-05-22T04:56:35.550Z,77.88
2019-05-22T04:57:35.482Z,78.36
2019-05-22T04:58:35.414Z,77.97
2019-05-22T04:59:35.342Z,78.80
2019-05-22T05:00:35.311Z,79.28
2019-05-22T05:01:35.211Z,78.64
2019-05-22T05:02:35.129Z,78.64
2019-05-22T05:03:35.067Z,78.84
2019-05-22T05:04:34.994Z,78.36
2019-05-22T05:05:34.923Z,78.36
2019-05-22T05:06:34.867Z,78.55
2019-05-22T05:07:34.785Z,77.59
2019-05-22T05:08:34.713Z,77.50
2019-05-22T05:09:34.645Z,77.21
2019-05-22T05:10:34.575Z,76.92
2019-05-22T05:11:34.502Z,77.15
2019-05-22T05:12:34.454Z,77.25
2019-05-22T05:13:34.368Z,76.77
2019-05-22T05:14:34.298Z,76.57
2019-05-22T05:15:37.132Z,76.10
2019-05-22T05:16:34.157Z,75.90
2019-05-22T05:17:34.086Z,76.29
2019-05-22T05:18:34.012Z,76.82
2019-05-22T05:19:33.955Z,76.25
2019-05-22T05:20:33.876Z,76.25
2019-05-22T05:21:33.824Z,76.06
2019-05-22T05:22:33.737Z,75.81
2019-05-22T05:23:33.711Z,76.10
2019-05-22T05:24:33.599Z,76.00
2019-05-22T05:25:33.531Z,75.71
2019-05-22T05:26:33.460Z,75.62
2019-05-22T05:27:33.404Z,75.52
2019-05-22T05:28:33.320Z,75.62
2019-05-22T05:29:33.255Z,74.47
2019-05-22T05:30:33.184Z,74.41
2019-05-22T05:31:33.115Z,74.98
2019-05-22T05:32:33.045Z,74.31
2019-05-22T05:33:32.975Z,73.74
2019-05-22T05:34:32.913Z,73.93
2019-05-22T05:35:32.834Z,74.12
2019-05-22T05:36:32.770Z,73.35
2019-05-22T05:37:32.700Z,73.55
2019-05-22T05:38:32.631Z,73.45
2019-05-22T05:39:32.560Z,73.55
2019-05-22T05:40:32.491Z,74.22
2019-05-22T05:41:32.426Z,74.02
2019-05-22T05:42:32.358Z,73.35
2019-05-22T05:43:32.293Z,73.26
2019-05-22T05:44:32.216Z,73.45
2019-05-22T05:45:32.147Z,73.55
2019-05-22T05:46:32.099Z,74.22
2019-05-22T05:47:32.021Z,73.93
2019-05-22T05:48:31.937Z,73.83
2019-05-22T05:49:31.891Z,73.93
2019-05-22T05:50:39.716Z,73.26
2019-05-22T05:51:31.739Z,73.65
2019-05-22T05:52:31.672Z,73.74
2019-05-22T05:53:31.596Z,73.26
2019-05-22T05:54:31.544Z,72.97
2019-05-22T05:55:31.463Z,73.45
2019-05-22T05:56:31.393Z,73.45
2019-05-22T05:57:31.329Z,74.08
2019-05-22T05:58:31.269Z,74.41
2019-05-22T05:59:31.186Z,74.31
2019-05-22T06:00:31.116Z,74.08
2019-05-22T06:01:31.045Z,74.27
2019-05-22T06:02:30.981Z,74.37
2019-05-22T06:03:30.914Z,74.41
2019-05-22T06:04:35.331Z,74.47
2019-05-22T06:05:30.777Z,74.98
2019-05-22T06:06:30.716Z,74.31
2019-05-22T06:07:30.642Z,74.47
2019-05-22T06:08:30.568Z,74.37
2019-05-22T06:09:30.505Z,75.04
2019-05-22T06:10:30.434Z,74.98
2019-05-22T06:11:31.025Z,74.69
2019-05-22T06:12:30.296Z,74.89
2019-05-22T06:13:30.239Z,74.22
2019-05-22T06:14:30.731Z,74.12
2019-05-22T06:15:45.620Z,74.41
2019-05-22T06:16:33.140Z,73.93
2019-05-22T06:17:30.004Z,74.31
2019-05-22T06:18:29.897Z,74.02
2019-05-22T06:19:30.221Z,73.87
2019-05-22T06:20:29.751Z,74.16
2019-05-22T06:21:29.693Z,73.68
2019-05-22T06:22:29.619Z,73.00
2019-05-22T06:23:29.548Z,73.00
2019-05-22T06:24:29.480Z,72.72
2019-05-22T06:25:29.420Z,72.72
2019-05-22T06:26:29.344Z,72.63
2019-05-22T06:27:29.278Z,73.20
2019-05-22T06:28:29.208Z,73.20
2019-05-22T06:29:29.299Z,73.20
2019-05-22T06:30:29.075Z,73.20
2019-05-22T06:31:29.009Z,73.00
2019-05-22T06:32:29.005Z,73.20
2019-05-22T06:33:28.869Z,72.81
2019-05-22T06:34:28.806Z,72.37
2019-05-22T06:35:28.734Z,72.72
2019-05-22T06:36:28.666Z,73.04
2019-05-22T06:37:28.600Z,73.04
2019-05-22T06:38:28.621Z,72.66
2019-05-22T06:39:28.465Z,72.66
2019-05-22T06:40:28.401Z,72.66
2019-05-22T06:41:28.340Z,72.85
2019-05-22T06:42:28.262Z,71.93
2019-05-22T06:43:28.200Z,72.41
2019-05-22T06:44:28.129Z,71.83
2019-05-22T06:45:28.062Z,72.60
2019-05-22T06:46:28.009Z,72.50
2019-05-22T06:47:27.926Z,72.50
2019-05-22T06:48:27.863Z,72.50
2019-05-22T06:49:27.793Z,71.98
2019-05-22T06:50:27.731Z,73.14
2019-05-22T06:51:27.671Z,72.66
2019-05-22T06:52:27.593Z,72.85
2019-05-22T06:53:27.522Z,72.66
2019-05-22T06:54:27.459Z,73.14
2019-05-22T06:55:27.390Z,73.14
2019-05-22T06:56:27.322Z,72.60
2019-05-22T06:57:27.306Z,72.69
2019-05-22T06:58:27.189Z,72.22
2019-05-22T06:59:27.137Z,72.02
2019-05-22T07:00:27.050Z,72.22
2019-05-22T07:01:26.987Z,72.41
2019-05-22T07:02:26.939Z,72.31
2019-05-22T07:03:26.855Z,72.50
2019-05-22T07:04:26.796Z,72.41
2019-05-22T07:05:26.719Z,71.55
2019-05-22T07:06:26.653Z,71.55
2019-05-22T07:07:26.585Z,71.55
2019-05-22T07:08:26.523Z,72.12
2019-05-22T07:09:26.451Z,71.73
2019-05-22T07:10:26.383Z,72.22
2019-05-22T07:11:26.318Z,71.83
2019-05-22T07:12:26.268Z,72.22
2019-05-22T07:13:26.237Z,71.45
2019-05-22T07:14:26.159Z,71.06
2019-05-22T07:15:26.057Z,71.35
2019-05-22T07:16:25.983Z,71.00
2019-05-22T07:17:25.917Z,71.00
2019-05-22T07:18:25.855Z,70.43
2019-05-22T07:19:25.840Z,70.43
2019-05-22T07:20:25.729Z,70.43
2019-05-22T07:21:33.723Z,70.43
2019-05-22T07:22:25.584Z,70.01
2019-05-22T07:23:25.517Z,71.06
2019-05-22T07:24:25.497Z,70.58
2019-05-22T07:25:25.382Z,71.25
2019-05-22T07:26:25.315Z,71.35
2019-05-22T07:27:25.253Z,71.16
2019-05-22T07:28:25.183Z,71.25
2019-05-22T07:29:25.140Z,71.93
2019-05-22T07:30:25.048Z,72.02
2019-05-22T07:31:24.983Z,71.58
2019-05-22T07:32:24.926Z,71.45
2019-05-22T07:33:24.854Z,72.12
2019-05-22T07:34:24.781Z,71.93
2019-05-22T07:35:24.726Z,71.83
2019-05-22T07:36:24.648Z,72.02
2019-05-22T07:37:24.584Z,72.31
2019-05-22T07:38:24.512Z,72.02
2019-05-22T07:39:24.491Z,72.12
2019-05-22T07:40:24.389Z,72.22
2019-05-22T07:41:24.316Z,72.64
2019-05-22T07:42:24.254Z,72.34
2019-05-22T07:43:24.184Z,72.29
2019-05-22T07:44:24.115Z,72.16
2019-05-22T07:45:24.053Z,72.25
2019-05-22T07:46:23.988Z,72.64
2019-05-22T07:47:23.949Z,72.64
2019-05-22T07:48:23.849Z,72.86
2019-05-22T07:49:23.788Z,73.25
2019-05-22T07:50:23.719Z,73.11
2019-05-22T07:51:23.652Z,72.96
2019-05-22T07:52:23.588Z,73.79
2019-05-22T07:53:23.518Z,73.79
2019-05-22T07:54:23.459Z,73.63
2019-05-22T07:55:23.390Z,73.44
2019-05-22T07:56:23.330Z,72.86
2019-05-22T07:57:23.265Z,72.96
2019-05-22T07:58:23.187Z,72.77
2019-05-22T07:59:23.122Z,72.67
2019-05-22T08:00:23.054Z,72.86
2019-05-22T08:01:22.991Z,73.25
2019-05-22T08:02:22.921Z,72.86
2019-05-22T08:03:22.853Z,72.67
2019-05-22T08:04:22.786Z,73.41
2019-05-22T08:05:22.726Z,73.92
2019-05-22T08:06:22.658Z,74.65
2019-05-22T08:07:22.594Z,75.04
2019-05-22T08:08:22.527Z,75.71
2019-05-22T08:09:22.459Z,76.29
2019-05-22T08:10:22.398Z,76.39
2019-05-22T08:11:22.325Z,75.71
2019-05-22T08:12:22.255Z,75.71
2019-05-22T08:13:22.188Z,75.71
2019-05-22T08:14:22.138Z,75.71
2019-05-22T08:15:22.063Z,75.65
2019-05-22T08:16:21.990Z,75.75
2019-05-22T08:17:21.939Z,75.75
2019-05-22T08:18:21.866Z,74.98
2019-05-22T08:19:21.792Z,74.88
2019-05-22T08:20:21.733Z,74.54
2019-05-22T08:21:23.683Z,74.79
2019-05-22T08:22:21.599Z,74.54
2019-05-22T08:23:21.531Z,74.88
2019-05-22T08:24:21.461Z,75.62
2019-05-22T08:25:21.414Z,76.09
2019-05-22T08:26:21.328Z,76.57
2019-05-22T08:27:21.258Z,77.06
2019-05-22T08:28:21.199Z,76.61
2019-05-22T08:29:21.125Z,76.67
2019-05-22T08:30:21.063Z,76.61
2019-05-22T08:31:21.272Z,76.52
2019-05-22T08:32:20.931Z,76.52
2019-05-22T08:33:20.873Z,76.52
2019-05-22T08:34:20.810Z,76.23
2019-05-22T08:35:20.740Z,75.84
2019-05-22T08:36:20.686Z,75.75
2019-05-22T08:37:20.604Z,75.98
2019-05-22T08:38:20.538Z,75.21
2019-05-22T08:39:20.469Z,75.40
2019-05-22T08:40:20.399Z,74.82
2019-05-22T08:41:20.347Z,75.21
2019-05-22T08:42:20.270Z,74.73
2019-05-22T08:43:20.210Z,74.82
2019-05-22T08:44:20.137Z,75.15
2019-05-22T08:45:20.081Z,74.34
2019-05-22T08:46:20.005Z,75.02
2019-05-22T08:47:19.939Z,75.02
2019-05-22T08:48:19.889Z,75.31
2019-05-22T08:49:19.805Z,75.02
2019-05-22T08:50:19.744Z,75.11
2019-05-22T08:51:19.674Z,75.31
2019-05-22T08:52:23.576Z,75.40
2019-05-22T08:53:19.542Z,74.92
2019-05-22T08:54:19.477Z,75.11
2019-05-22T08:55:19.412Z,75.24
2019-05-22T08:56:19.359Z,75.15
2019-05-22T08:57:19.280Z,74.96
2019-05-22T08:58:19.213Z,74.67
2019-05-22T08:59:20.231Z,74.57
2019-05-22T09:00:19.080Z,74.48
2019-05-22T09:01:19.025Z,73.99
2019-05-22T09:02:18.950Z,74.32
2019-05-22T09:03:18.887Z,74.22
2019-05-22T09:04:18.818Z,73.46
2019-05-22T09:05:21.471Z,73.13
2019-05-22T09:06:18.744Z,73.71
2019-05-22T09:07:18.638Z,74.19
2019-05-22T09:08:18.566Z,73.99
2019-05-22T09:09:18.491Z,73.90
2019-05-22T09:10:18.427Z,73.84
2019-05-22T09:11:18.413Z,73.74
2019-05-22T09:12:18.291Z,74.03
2019-05-22T09:13:18.226Z,73.07
2019-05-22T09:14:18.216Z,73.55
2019-05-22T09:15:18.160Z,73.26
2019-05-22T09:16:18.034Z,73.71
2019-05-22T09:17:17.964Z,75.34
2019-05-22T09:18:17.898Z,76.88
2019-05-22T09:19:17.832Z,78.23
2019-05-22T09:20:17.769Z,76.92
2019-05-22T09:21:17.712Z,76.98
2019-05-22T09:22:17.636Z,78.56
2019-05-22T09:23:17.567Z,77.46
2019-05-22T09:24:17.517Z,77.36
2019-05-22T09:25:17.469Z,76.34
2019-05-22T09:26:17.381Z,75.48
2019-05-22T09:27:17.311Z,75.38
2019-05-22T09:28:17.254Z,76.92
2019-05-22T09:29:17.180Z,76.92
2019-05-22T09:30:17.109Z,77.98
2019-05-22T09:31:17.050Z,77.21
2019-05-22T09:32:16.980Z,77.88
2019-05-22T09:33:16.917Z,77.40
2019-05-22T09:34:16.851Z,77.11
2019-05-22T09:35:16.789Z,76.15
2019-05-22T09:36:16.734Z,77.31
2019-05-22T09:37:16.652Z,76.50
2019-05-22T09:38:16.590Z,76.59
2019-05-22T09:39:16.523Z,78.27
2019-05-22T09:40:16.457Z,77.69
2019-05-22T09:41:16.406Z,76.69
2019-05-22T09:42:16.369Z,76.82
2019-05-22T09:43:16.260Z,76.69
2019-05-22T09:44:16.199Z,77.56
2019-05-22T09:45:16.168Z,79.13
2019-05-22T09:46:16.066Z,77.50
2019-05-22T09:47:15.995Z,77.21
2019-05-22T09:48:15.947Z,78.27
2019-05-22T09:49:15.873Z,75.86
2019-05-22T09:50:15.805Z,76.31
2019-05-22T09:51:15.737Z,77.08
2019-05-22T09:52:15.668Z,76.78
2019-05-22T09:53:15.606Z,77.50
2019-05-22T09:54:15.539Z,77.01
2019-05-22T09:55:15.477Z,75.76
2019-05-22T09:56:15.424Z,76.34
2019-05-22T09:57:15.374Z,75.28
2019-05-22T09:58:15.278Z,76.25
2019-05-22T09:59:15.216Z,75.38
2019-05-22T10:00:15.142Z,76.15
2019-05-22T10:01:15.081Z,75.99
2019-05-22T10:02:15.015Z,75.03
2019-05-22T10:03:14.949Z,74.45
2019-05-22T10:04:14.885Z,75.32
2019-05-22T10:05:14.820Z,74.26
2019-05-22T10:06:14.752Z,77.86
2019-05-22T10:07:14.691Z,74.78
2019-05-22T10:08:14.623Z,74.20
2019-05-22T10:09:14.565Z,74.78
2019-05-22T10:10:14.495Z,78.54
2019-05-22T10:11:14.425Z,76.71
2019-05-22T10:12:14.366Z,74.40
2019-05-22T10:13:14.331Z,74.58
2019-05-22T10:14:14.242Z,74.58
2019-05-22T10:15:14.165Z,74.58
2019-05-22T10:16:14.101Z,74.01
2019-05-22T10:17:14.033Z,74.40
2019-05-22T10:18:13.972Z,75.36
2019-05-22T10:19:13.907Z,73.82
2019-05-22T10:20:13.835Z,73.53
2019-05-22T10:21:13.773Z,73.33
2019-05-22T10:22:13.709Z,71.79
2019-05-22T10:23:15.854Z,71.70
2019-05-22T10:24:13.605Z,71.22
2019-05-22T10:25:16.181Z,72.18
2019-05-22T10:26:13.448Z,73.72
2019-05-22T10:27:13.382Z,76.51
2019-05-22T10:28:13.319Z,74.58
2019-05-22T10:29:13.253Z,73.72
2019-05-22T10:30:13.213Z,74.58
2019-05-22T10:31:15.294Z,73.33
2019-05-22T10:32:13.053Z,73.49
2019-05-22T10:33:13.017Z,73.33
2019-05-22T10:34:12.922Z,72.75
2019-05-22T10:35:12.859Z,72.47
2019-05-22T10:36:12.798Z,72.18
2019-05-22T10:37:12.730Z,71.22
2019-05-22T10:38:12.711Z,71.98
2019-05-22T10:39:12.597Z,71.79
2019-05-22T10:40:12.531Z,72.66
2019-05-22T10:41:12.469Z,70.92
2019-05-22T10:42:12.402Z,71.60
2019-05-22T10:43:12.338Z,70.15
2019-05-22T10:44:12.270Z,71.79
2019-05-22T10:45:12.230Z,70.15
2019-05-22T10:46:12.217Z,69.96
2019-05-22T10:47:12.076Z,70.06
2019-05-22T10:48:12.011Z,69.48
2019-05-22T10:49:11.943Z,68.74
2019-05-22T10:50:11.888Z,69.61
2019-05-22T10:51:11.817Z,68.65
2019-05-22T10:52:11.753Z,68.74
2019-05-22T10:53:11.683Z,69.23
2019-05-22T10:54:11.617Z,70.00
2019-05-22T10:55:11.553Z,71.83
2019-05-22T10:56:11.502Z,70.06
2019-05-22T10:57:11.442Z,68.90
2019-05-22T10:58:11.357Z,68.61
2019-05-22T10:59:11.298Z,69.29
2019-05-22T11:00:11.237Z,68.23
2019-05-22T11:01:11.157Z,67.65
2019-05-22T11:02:11.093Z,67.26
2019-05-22T11:03:11.031Z,68.61
2019-05-22T11:04:10.968Z,68.16
2019-05-22T11:05:10.902Z,66.62
2019-05-22T11:06:10.876Z,67.30
2019-05-22T11:07:10.771Z,66.91
2019-05-22T11:08:10.711Z,65.75
2019-05-22T11:09:10.640Z,64.69
2019-05-22T11:10:10.577Z,64.11
2019-05-22T11:11:10.513Z,64.21
2019-05-22T11:12:10.444Z,64.82
2019-05-22T11:13:10.379Z,63.76
2019-05-22T11:14:10.311Z,64.72
2019-05-22T11:15:10.248Z,64.15
2019-05-22T11:16:10.218Z,64.92
2019-05-22T11:17:10.127Z,64.92
2019-05-22T11:18:10.054Z,65.20
2019-05-22T11:19:09.990Z,64.72
2019-05-22T11:20:09.927Z,63.28
2019-05-22T11:21:09.855Z,63.24
2019-05-22T11:22:09.791Z,65.11
2019-05-22T11:23:09.727Z,64.43
2019-05-22T11:24:09.677Z,64.53
2019-05-22T11:25:09.599Z,64.69
2019-05-22T11:26:09.539Z,62.22
2019-05-22T11:27:09.467Z,64.72
2019-05-22T11:28:09.404Z,62.70
2019-05-22T11:29:09.338Z,65.01
2019-05-22T11:30:09.289Z,64.15
2019-05-22T11:31:09.211Z,63.47
2019-05-22T11:32:09.139Z,62.12
2019-05-22T11:33:09.140Z,61.64
2019-05-22T11:34:09.015Z,62.31
2019-05-22T11:35:08.949Z,62.51
2019-05-22T11:36:08.888Z,61.83
2019-05-22T11:37:08.820Z,64.72
2019-05-22T11:38:08.749Z,64.92
2019-05-22T11:39:08.688Z,64.72
2019-05-22T11:40:08.627Z,64.34
2019-05-22T11:41:08.553Z,64.82
2019-05-22T11:42:08.493Z,64.92
2019-05-22T11:43:08.425Z,63.67
2019-05-22T11:44:08.361Z,63.47
2019-05-22T11:45:08.296Z,64.34
2019-05-22T11:46:08.230Z,64.56
2019-05-22T11:47:08.167Z,64.86
2019-05-22T11:48:08.103Z,64.08
2019-05-22T11:49:08.035Z,61.47
2019-05-22T11:50:07.968Z,60.41
2019-05-22T11:51:07.907Z,61.28
2019-05-22T11:52:07.839Z,63.70
2019-05-22T11:53:07.782Z,61.77
2019-05-22T11:54:09.689Z,60.41
2019-05-22T11:55:07.641Z,60.80
2019-05-22T11:56:07.578Z,58.39
2019-05-22T11:57:07.519Z,55.98
2019-05-22T11:58:07.454Z,57.62
2019-05-22T11:59:07.384Z,57.62
2019-05-22T12:00:09.356Z,55.20
2019-05-22T12:01:07.266Z,54.91
2019-05-22T12:02:07.189Z,55.78
2019-05-22T12:03:07.126Z,55.49
2019-05-22T12:04:07.062Z,56.74
2019-05-22T12:05:07.000Z,55.88
2019-05-22T12:06:06.936Z,57.62
2019-05-22T12:07:06.872Z,57.42
2019-05-22T12:08:06.805Z,58.03
2019-05-22T12:09:06.737Z,57.93
2019-05-22T12:10:06.689Z,56.68
2019-05-22T12:11:06.605Z,55.62
2019-05-22T12:12:06.539Z,55.13
2019-05-22T12:13:06.475Z,57.45
2019-05-22T12:14:06.427Z,56.07
2019-05-22T12:15:06.348Z,54.91
2019-05-22T12:16:06.285Z,53.97
2019-05-22T12:17:06.209Z,53.30
2019-05-22T12:18:06.150Z,53.97
2019-05-22T12:19:06.088Z,51.65
2019-05-22T12:20:06.023Z,51.46
2019-05-22T12:21:05.958Z,52.43
2019-05-22T12:22:05.938Z,50.21
2019-05-22T12:23:05.824Z,53.30
2019-05-22T12:24:05.761Z,50.21
2019-05-22T12:25:05.697Z,50.86
2019-05-22T12:26:05.632Z,49.70
2019-05-22T12:27:05.570Z,49.24
2019-05-22T12:28:05.510Z,49.34
2019-05-22T12:29:05.434Z,48.66
2019-05-22T12:30:05.558Z,48.66
2019-05-22T12:31:05.313Z,49.05
2019-05-22T12:32:05.243Z,49.63
2019-05-22T12:33:12.646Z,52.33
2019-05-22T12:34:05.118Z,52.43
2019-05-22T12:35:05.051Z,53.88
2019-05-22T12:36:04.979Z,52.53
2019-05-22T12:37:04.915Z,53.49
2019-05-22T12:38:04.859Z,53.30
2019-05-22T12:39:04.792Z,51.56
2019-05-22T12:40:04.718Z,52.23
2019-05-22T12:41:04.655Z,52.23
2019-05-22T12:42:04.593Z,50.11
2019-05-22T12:43:04.524Z,49.53
2019-05-22T12:44:04.476Z,49.44
2019-05-22T12:45:04.468Z,50.11
2019-05-22T12:46:04.330Z,48.57
2019-05-22T12:47:04.270Z,48.28
2019-05-22T12:48:04.204Z,52.62
2019-05-22T12:49:04.136Z,52.04
2019-05-22T12:50:04.088Z,51.27
2019-05-22T12:51:04.005Z,50.40
2019-05-22T12:52:03.943Z,50.21